メインページ
METAR-TAF:

METAR-TAF

空港 :

北京首都国際空港

北京, 中華人民共和国

緯度: 39-56N, 経度: 116-17E, 海抜: 55m

現時点の気象観測

当レポートは12分前の12:00(UTC)に作成
の風 12kt
気温 21°C
湿度 11%
気圧 1010 hPa
視程10km以上
1,500メートル以下は雲なし、積乱雲なし

METAR: ZBAA 221200Z 36006MPS CAVOK 21/M11 Q1010 NOSIG

時間: 20:12 (12:12 UTC)

予報

当レポートは2時間42分前の09:30(UTC)に作成
予報は22日の 12時(UTC)から 23日の 12時(UTC)まで有効
南/南西の風 8kt
視程10km以上
1,500メートル以下は雲なし、積乱雲なし

TAF: ZBAA 220930Z 2212/2312 20004MPS CAVOK TX30/2306Z TN13/2221Z

4,000以上の空港の気象観測と天気予報(METAR報とTAF報)

利用可能な観測所は地図上に黄色い丸と赤い丸で示す。

丸の上にカーソルを重ねると観測所名を参照できる。

次にクリックすると気象観測と天気予報を参照できる。

マップの切り替え:黒色「×」印の緑ボタンをクリックして拡大、「-」印の緑ボタンをクリックして縮小、緑色の三角印をクリックして隣りの地図に切り替え


METAR-TAF: